Time;durP1;ratioP1;P1;durP2;ratioP2;P2;SDS_P1;SDS_P2;PMS_P1;PMS_P2;Temp;Humidity;BMP_temperature;BMP_pressure;BME280_temperature;BME280_humidity;BME280_pressure;Samples;Min_cycle;Max_cycle;Signal;HPM_P1;HPM_P2
2022/10/06 00:00:49;;;;;;;6.45;3.42;;;12.70;99.90;;;;;;6076684;23;20472;-91
2022/10/06 00:04:07;;;;;;;16.15;3.47;;;12.40;1.00;;;;;;6077437;23;20026;-92
2022/10/06 00:07:03;;;;;;;6.10;3.33;;;12.20;1.00;;;;;;6076962;23;20030;-90
2022/10/06 00:10:07;;;;;;;8.07;3.60;;;12.00;1.00;;;;;;6103525;23;20041;-90
2022/10/06 00:20:31;;;;;;;7.00;4.18;;;11.50;99.90;;;;;;6172356;23;20029;-88
2022/10/06 00:24:03;;;;;;;5.68;3.88;;;11.20;99.90;;;;;;6178637;23;20029;-91
2022/10/06 00:26:51;;;;;;;7.13;3.95;;;11.30;99.90;;;;;;6168660;23;20025;-91
2022/10/06 00:29:47;;;;;;;8.95;3.92;;;11.50;99.90;;;;;;6167642;23;20437;-91
2022/10/06 00:33:22;;;;;;;6.13;3.67;;;11.80;99.90;;;;;;6189127;23;20053;-92
2022/10/06 00:36:20;;;;;;;;;;;;;;;;;;;;;
2022/10/06 00:40:05;;;;;;;8.10;2.60;;;12.70;75.70;;;;;;6077552;23;20027;-91
2022/10/06 00:43:26;;;;;;;6.55;3.10;;;13.10;1.00;;;;;;6058858;23;20038;-93
2022/10/06 00:50:21;;;;;;;4.82;2.85;;;13.70;99.90;;;;;;6080584;23;20013;-92
2022/10/06 00:53:25;;;;;;;4.25;2.30;;;13.80;99.90;;;;;;6079306;23;20085;-91
2022/10/06 01:03:48;;;;;;;5.20;2.50;;;14.10;99.90;;;;;;6190997;23;20024;-92
2022/10/06 01:06:47;;;;;;;6.97;2.42;;;14.10;99.90;;;;;;6189429;23;20040;-92
2022/10/06 01:10:00;;;;;;;3.90;2.35;;;14.20;99.90;;;;;;6168634;23;20029;-92
2022/10/06 01:13:03;;;;;;;4.53;2.42;;;14.20;99.90;;;;;;6167642;23;20425;-91
2022/10/06 01:20:17;;;;;;;4.20;2.50;;;14.10;99.90;;;;;;6188616;23;20049;-91
2022/10/06 01:23:09;;;;;;;2.67;2.05;;;14.00;99.90;;;;;;6168856;23;20040;-90
2022/10/06 01:26:29;;;;;;;5.03;2.40;;;13.90;99.90;;;;;;6186186;23;20031;-92
2022/10/06 01:29:17;;;;;;;6.75;2.75;;;13.60;99.90;;;;;;6175220;23;20044;-93
2022/10/06 01:32:08;;;;;;;7.35;2.67;;;13.50;99.90;;;;;;6168794;23;20108;-93
2022/10/06 01:34:55;;;;;;;7.65;2.60;;;13.50;99.90;;;;;;6167259;23;20688;-94
2022/10/06 01:37:42;;;;;;;4.68;2.30;;;13.40;99.90;;;;;;6167416;23;20057;-92
2022/10/06 01:40:36;;;;;;;4.00;2.83;;;13.20;99.90;;;;;;6164111;23;20445;-92
2022/10/06 01:43:23;;;;;;;7.53;2.72;;;13.10;99.90;;;;;;6166364;23;20097;-92
2022/10/06 01:46:10;;;;;;;4.15;2.58;;;12.90;99.90;;;;;;6164139;23;20091;-91
2022/10/06 01:49:00;;;;;;;4.75;2.90;;;12.70;99.90;;;;;;6186360;23;20286;-92
2022/10/06 01:51:51;;;;;;;5.03;2.80;;;12.60;99.90;;;;;;6165502;23;20079;-90
2022/10/06 01:54:49;;;;;;;12.13;3.15;;;12.50;99.90;;;;;;6186746;23;20029;-90
2022/10/06 01:57:41;;;;;;;3.33;2.60;;;12.50;99.90;;;;;;6188038;23;20025;-92
2022/10/06 02:00:28;;;;;;;5.03;2.88;;;12.50;99.90;;;;;;6185181;23;20025;-93
2022/10/06 02:03:17;;;;;;;6.25;2.80;;;12.50;99.90;;;;;;6186237;23;20163;-91
2022/10/06 02:06:08;;;;;;;4.28;2.60;;;12.60;99.90;;;;;;6165089;23;20048;-94
2022/10/06 02:12:38;;;;;;;9.18;3.25;;;12.70;99.90;;;;;;6186454;23;20048;-91
2022/10/06 02:15:35;;;;;;;4.32;2.63;;;12.70;99.90;;;;;;6164182;23;20029;-91
2022/10/06 02:26:49;;;;;;;5.65;2.53;;;12.90;99.90;;;;;;6147495;23;20016;-91
2022/10/06 02:30:13;;;;;;;6.53;2.63;;;13.00;99.90;;;;;;6187980;23;20083;-92
2022/10/06 02:33:13;;;;;;;7.65;3.00;;;13.00;99.90;;;;;;6168057;23;20028;-94
2022/10/06 02:36:03;;;;;;;5.40;2.60;;;13.10;99.90;;;;;;6188190;23;20025;-90
2022/10/06 02:38:57;;;;;;;4.75;3.00;;;13.10;99.90;;;;;;6187671;23;20032;-91
2022/10/06 02:42:10;;;;;;;5.88;2.50;;;13.10;99.90;;;;;;6172713;23;20037;-92
2022/10/06 02:44:58;;;;;;;7.28;3.15;;;13.20;99.90;;;;;;6186566;23;20099;-92
2022/10/06 02:48:11;;;;;;;10.43;2.67;;;13.10;99.90;;;;;;6164277;23;20064;-91
2022/10/06 02:55:15;;;;;;;3.60;2.60;;;13.00;99.90;;;;;;6188406;23;20005;-91
2022/10/06 02:58:21;;;;;;;4.75;2.88;;;12.90;99.90;;;;;;6162098;23;20028;-93
2022/10/06 03:01:18;;;;;;;5.80;3.13;;;12.60;99.90;;;;;;6162162;23;20124;-90
2022/10/06 03:07:31;;;;;;;8.93;3.42;;;12.30;99.90;;;;;;6147250;23;20033;-90
2022/10/06 03:10:29;;;;;;;5.63;2.80;;;12.30;99.90;;;;;;6167455;23;20039;-90
2022/10/06 03:13:36;;;;;;;7.20;2.90;;;12.40;99.90;;;;;;6164877;23;20024;-91
2022/10/06 03:16:41;;;;;;;8.15;3.97;;;12.50;99.90;;;;;;6184706;23;20080;-91
2022/10/06 03:19:42;;;;;;;3.97;2.90;;;12.50;99.90;;;;;;6165897;23;20052;-92
2022/10/06 03:22:35;;;;;;;5.30;3.10;;;12.50;99.90;;;;;;6169141;23;20115;-90
2022/10/06 03:28:59;;;;;;;7.90;3.25;;;12.50;99.90;;;;;;6174988;23;20312;-91
2022/10/06 03:31:59;;;;;;;4.60;2.80;;;12.50;99.90;;;;;;6186334;23;20085;-92
2022/10/06 03:35:24;;;;;;;;;;;;;;;;;;;;;
2022/10/06 03:42:58;;;;;;;6.85;3.33;;;12.30;99.90;;;;;;6188762;23;20144;-92
2022/10/06 03:46:11;;;;;;;13.07;4.18;;;12.00;99.90;;;;;;6171603;23;20040;-92
2022/10/06 03:49:10;;;;;;;6.20;3.15;;;11.80;99.90;;;;;;6166724;23;20047;-92
2022/10/06 03:51:58;;;;;;;10.88;3.70;;;11.90;99.90;;;;;;6188366;23;20025;-91
2022/10/06 03:54:54;;;;;;;6.13;3.40;;;12.00;99.90;;;;;;6167493;23;20025;-92
2022/10/06 03:57:56;;;;;;;5.43;3.00;;;12.00;99.90;;;;;;6200595;23;20748;-92
2022/10/06 04:01:41;;;;;;;5.88;3.38;;;12.00;99.90;;;;;;6182381;23;20043;-92
2022/10/06 04:04:43;;;;;;;7.30;3.13;;;11.80;99.90;;;;;;6119463;23;20014;-90
2022/10/06 04:07:44;;;;;;;4.50;3.10;;;11.70;99.90;;;;;;6131631;23;20025;-90
2022/10/06 04:10:40;;;;;;;6.18;3.50;;;11.40;1.00;;;;;;6191069;23;20056;-92
2022/10/06 04:13:34;;;;;;;6.95;3.50;;;11.20;1.00;;;;;;6203470;23;20048;-90
2022/10/06 04:16:33;;;;;;;6.53;3.33;;;11.10;1.00;;;;;;6194975;23;20020;-91
2022/10/06 04:19:26;;;;;;;9.82;3.80;;;10.90;1.00;;;;;;6175042;23;20057;-93
2022/10/06 04:22:27;;;;;;;9.38;3.95;;;11.00;29.70;;;;;;6168946;23;20025;-93
2022/10/06 04:25:17;;;;;;;10.82;3.85;;;11.20;29.20;;;;;;6167226;23;20032;-91
2022/10/06 04:28:07;;;;;;;9.82;3.53;;;11.40;10.60;;;;;;6190803;23;20020;-91
2022/10/06 04:31:04;;;;;;;10.75;4.68;;;11.40;1.00;;;;;;6168547;23;20324;-92
2022/10/06 04:33:56;;;;;;;8.63;4.47;;;11.40;1.00;;;;;;6167408;23;20039;-87
2022/10/06 04:36:44;;;;;;;8.57;3.97;;;11.30;1.00;;;;;;6168034;23;20079;-87
2022/10/06 04:39:32;;;;;;;6.93;3.97;;;11.30;1.00;;;;;;6187760;23;20021;-87
2022/10/06 04:42:19;;;;;;;11.40;4.82;;;11.20;10.30;;;;;;6169062;23;20431;-86
2022/10/06 04:45:07;;;;;;;6.60;4.28;;;11.20;38.30;;;;;;6167635;23;20021;-86
2022/10/06 04:47:54;;;;;;;7.72;4.45;;;11.20;80.10;;;;;;6193422;23;20042;-90
2022/10/06 04:50:51;;;;;;;9.43;4.30;;;11.10;99.70;;;;;;6210073;23;20025;-92
2022/10/06 04:53:39;;;;;;;7.07;4.18;;;10.90;99.90;;;;;;6212293;23;20009;-86
2022/10/06 04:56:30;;;;;;;7.53;4.15;;;10.70;99.90;;;;;;6213293;23;20061;-89
2022/10/06 05:06:29;;;;;;;10.38;4.90;;;10.60;99.90;;;;;;6208253;23;20021;-92
2022/10/06 05:13:42;;;;;;;8.90;4.05;;;10.70;99.90;;;;;;6169763;23;20108;-94
2022/10/06 05:16:31;;;;;;;8.07;4.18;;;10.80;99.90;;;;;;6191682;23;20109;-91
2022/10/06 05:19:29;;;;;;;7.53;3.92;;;10.90;99.90;;;;;;6174145;23;20036;-93
2022/10/06 05:22:20;;;;;;;15.68;4.95;;;10.90;99.90;;;;;;6200101;23;20029;-88
2022/10/06 05:25:11;;;;;;;8.70;4.18;;;10.90;99.90;;;;;;6195662;23;20040;-88
2022/10/06 05:27:58;;;;;;;10.50;4.85;;;10.90;99.90;;;;;;6191019;23;20108;-86
2022/10/06 05:30:56;;;;;;;5.75;3.85;;;11.10;99.90;;;;;;6210491;23;20025;-89
2022/10/06 05:33:43;;;;;;;9.02;4.53;;;11.30;99.90;;;;;;6202003;23;20085;-88
2022/10/06 05:36:32;;;;;;;9.40;4.50;;;11.40;99.90;;;;;;6202884;23;20035;-90
2022/10/06 05:39:22;;;;;;;7.20;4.28;;;11.40;99.90;;;;;;6174485;23;20032;-91
2022/10/06 05:42:09;;;;;;;7.43;3.88;;;11.50;99.90;;;;;;6189691;23;20027;-91
2022/10/06 05:44:58;;;;;;;7.28;3.85;;;11.60;99.90;;;;;;6187799;23;20420;-87
2022/10/06 05:47:45;;;;;;;6.40;3.90;;;11.60;99.90;;;;;;6185951;23;20032;-91
2022/10/06 05:50:34;;;;;;;6.53;3.85;;;11.70;97.00;;;;;;6186444;23;20451;-91
2022/10/06 05:53:21;;;;;;;9.23;4.15;;;11.80;73.80;;;;;;6187899;23;20025;-91
2022/10/06 05:56:13;;;;;;;7.43;3.70;;;11.90;39.50;;;;;;6148338;23;20029;-87
2022/10/06 05:59:01;;;;;;;5.75;3.65;;;12.00;8.00;;;;;;6188517;23;20437;-90
2022/10/06 06:01:48;;;;;;;8.85;3.88;;;12.10;1.00;;;;;;6178949;23;20036;-89
2022/10/06 06:04:35;;;;;;;13.38;6.43;;;12.30;1.00;;;;;;6178449;23;20048;-89
2022/10/06 06:07:30;;;;;;;10.23;6.80;;;12.30;1.00;;;;;;6179817;23;20063;-88
2022/10/06 06:10:17;;;;;;;10.73;6.10;;;12.20;1.00;;;;;;6199942;23;20025;-88
2022/10/06 06:13:04;;;;;;;14.00;6.60;;;12.20;1.00;;;;;;6180746;23;20028;-90
2022/10/06 06:16:00;;;;;;;11.75;6.35;;;12.10;1.00;;;;;;6180935;23;20033;-89
2022/10/06 06:18:47;;;;;;;7.75;4.78;;;12.20;1.00;;;;;;6199800;23;20025;-89
2022/10/06 06:21:34;;;;;;;10.77;5.03;;;12.20;1.00;;;;;;6194965;23;20364;-91
2022/10/06 06:24:21;;;;;;;15.90;4.15;;;12.30;1.00;;;;;;6177027;23;20031;-91
2022/10/06 06:27:08;;;;;;;6.32;4.18;;;12.50;1.00;;;;;;6195337;23;20039;-90
2022/10/06 06:29:58;;;;;;;10.10;3.80;;;12.60;1.00;;;;;;6188929;23;20035;-91
2022/10/06 06:32:45;;;;;;;12.18;4.07;;;12.70;1.00;;;;;;6169099;23;20025;-90
2022/10/06 06:35:35;;;;;;;6.45;3.88;;;12.90;1.00;;;;;;6191984;23;20055;-89
2022/10/06 06:38:22;;;;;;;6.20;4.00;;;13.00;1.00;;;;;;6187328;23;20110;-87
2022/10/06 06:41:18;;;;;;;9.02;4.18;;;13.10;1.00;;;;;;6186331;23;20025;-90
2022/10/06 06:44:07;;;;;;;10.80;4.57;;;13.20;1.00;;;;;;6163548;23;20025;-87
2022/10/06 06:46:55;;;;;;;6.03;3.75;;;13.20;1.00;;;;;;6191755;23;20052;-88
2022/10/06 06:49:42;;;;;;;8.82;4.55;;;13.40;1.00;;;;;;6187555;23;20044;-88
2022/10/06 06:52:31;;;;;;;6.80;4.55;;;13.50;1.00;;;;;;6184513;23;20029;-88
2022/10/06 06:55:18;;;;;;;8.10;3.97;;;13.60;1.00;;;;;;6185053;23;20029;-89
2022/10/06 06:58:10;;;;;;;8.10;4.65;;;13.60;1.00;;;;;;6184951;23;20025;-90
2022/10/06 07:01:06;;;;;;;11.93;4.53;;;13.40;1.00;;;;;;6185248;23;20029;-87
2022/10/06 07:03:57;;;;;;;15.13;4.93;;;13.40;1.00;;;;;;6167738;23;20020;-90
2022/10/06 07:06:52;;;;;;;9.45;4.22;;;13.40;1.00;;;;;;6163667;23;20029;-89
2022/10/06 07:09:39;;;;;;;8.52;4.70;;;13.50;1.00;;;;;;6187495;23;20099;-86
2022/10/06 07:12:26;;;;;;;10.35;4.80;;;13.60;1.00;;;;;;6164388;23;20025;-87
2022/10/06 07:27:52;;;;;;;6.05;3.72;;;14.90;99.90;;;;;;6186967;23;20052;-87
2022/10/06 07:30:39;;;;;;;8.63;3.95;;;15.10;99.90;;;;;;6184816;23;20296;-87
2022/10/06 07:33:28;;;;;;;12.90;3.50;;;15.20;99.90;;;;;;6184631;23;20025;-86
2022/10/06 07:36:15;;;;;;;5.90;3.40;;;15.30;99.90;;;;;;6185353;23;20024;-87
2022/10/06 07:39:02;;;;;;;9.45;3.60;;;15.40;99.90;;;;;;6185172;23;20113;-88
2022/10/06 07:41:50;;;;;;;11.02;3.30;;;15.30;99.90;;;;;;6184817;23;20076;-90
2022/10/06 07:44:38;;;;;;;11.18;3.30;;;15.30;99.90;;;;;;6186703;23;20431;-88
2022/10/06 07:47:25;;;;;;;9.02;3.45;;;15.30;99.90;;;;;;6187580;23;20025;-87
2022/10/06 07:50:12;;;;;;;11.95;4.13;;;15.30;99.90;;;;;;6187638;23;20043;-88
2022/10/06 07:53:03;;;;;;;10.18;3.83;;;15.30;99.90;;;;;;6186806;23;20567;-88
2022/10/06 07:55:52;;;;;;;9.57;3.97;;;15.40;99.90;;;;;;6186505;23;20029;-86
2022/10/06 07:58:43;;;;;;;8.13;3.40;;;15.60;99.90;;;;;;6185781;23;20404;-87
2022/10/06 08:01:32;;;;;;;7.18;3.40;;;15.80;99.90;;;;;;6206308;23;20091;-88
2022/10/06 08:04:20;;;;;;;8.05;3.97;;;15.70;99.90;;;;;;6188890;23;20035;-88
2022/10/06 08:07:09;;;;;;;12.48;4.25;;;15.70;99.90;;;;;;6189943;23;20375;-85
2022/10/06 08:09:56;;;;;;;6.10;3.13;;;15.60;99.90;;;;;;6187364;23;20025;-87
2022/10/06 08:12:43;;;;;;;12.45;3.92;;;15.60;99.90;;;;;;6192940;23;20040;-88
2022/10/06 08:15:30;;;;;;;7.70;3.10;;;15.50;99.90;;;;;;6192597;23;20107;-87
2022/10/06 08:18:20;;;;;;;6.47;2.88;;;15.50;99.90;;;;;;6188354;23;20053;-88
2022/10/06 08:21:33;;;;;;;14.20;2.97;;;15.70;99.90;;;;;;6189383;23;20025;-89
2022/10/06 08:24:20;;;;;;;6.57;2.50;;;15.80;99.90;;;;;;6188880;23;20025;-85
2022/10/06 08:27:08;;;;;;;7.55;2.60;;;15.70;99.90;;;;;;6188724;23;20052;-86
2022/10/06 08:29:56;;;;;;;7.57;2.50;;;15.60;99.90;;;;;;6188171;23;20029;-89
2022/10/06 08:32:43;;;;;;;9.52;2.78;;;15.80;99.90;;;;;;6186629;23;20428;-88
2022/10/06 08:35:34;;;;;;;12.98;2.78;;;16.00;99.90;;;;;;6189092;23;20029;-88
2022/10/06 08:38:22;;;;;;;7.47;2.67;;;16.30;99.90;;;;;;6191537;23;20032;-89
2022/10/06 08:41:26;;;;;;;11.40;2.90;;;16.50;99.90;;;;;;6195402;23;20025;-89
2022/10/06 08:44:17;;;;;;;7.03;2.30;;;16.80;99.90;;;;;;6186317;23;20052;-88
2022/10/06 08:47:13;;;;;;;5.93;1.90;;;17.20;99.90;;;;;;6188372;23;20025;-91
2022/10/06 08:50:10;;;;;;;5.13;2.10;;;17.40;99.90;;;;;;6164004;23;20021;-91
2022/10/06 08:53:22;;;;;;;5.63;1.65;;;17.70;99.90;;;;;;6166993;23;20099;-89
2022/10/06 08:56:19;;;;;;;4.30;1.90;;;17.90;99.90;;;;;;6185065;23;20091;-91
2022/10/06 08:59:08;;;;;;;5.47;1.67;;;18.00;99.90;;;;;;6187133;23;20655;-89
2022/10/06 09:01:56;;;;;;;6.53;1.67;;;18.00;99.90;;;;;;6186123;23;20309;-88
2022/10/06 09:04:43;;;;;;;5.10;2.08;;;18.20;99.40;;;;;;6184144;23;20025;-87
2022/10/06 09:08:06;;;;;;;9.68;1.80;;;18.30;99.90;;;;;;6184723;23;20096;-88
2022/10/06 09:11:20;;;;;;;6.22;2.00;;;18.30;92.50;;;;;;6188868;23;20052;-89
2022/10/06 09:14:21;;;;;;;8.45;1.65;;;18.30;81.90;;;;;;6165625;23;20056;-87
2022/10/06 09:17:13;;;;;;;6.53;1.30;;;18.40;73.30;;;;;;6184515;23;20040;-88
2022/10/06 09:20:14;;;;;;;;;;;18.40;65.40;;;;;;6180623;23;20029;-89
2022/10/06 09:23:13;;;;;;;7.25;1.98;;;18.60;47.80;;;;;;6200774;23;19926;-89
2022/10/06 09:26:01;;;;;;;4.13;1.27;;;18.80;37.50;;;;;;6210503;23;20025;-87
2022/10/06 09:28:54;;;;;;;8.32;1.75;;;18.80;20.30;;;;;;6201397;23;20058;-88
2022/10/06 09:31:49;;;;;;;6.13;1.30;;;18.70;29.70;;;;;;6198066;23;20048;-88
2022/10/06 09:34:50;;;;;;;2.25;1.45;;;18.80;23.50;;;;;;6194487;23;20125;-88
2022/10/06 09:37:53;;;;;;;6.63;1.52;;;18.80;23.30;;;;;;6196557;23;20021;-89
2022/10/06 09:40:50;;;;;;;3.50;1.40;;;18.80;21.90;;;;;;6166566;23;20049;-87
2022/10/06 09:43:38;;;;;;;3.55;1.40;;;18.80;16.40;;;;;;6187400;23;20017;-88
2022/10/06 09:46:40;;;;;;;3.55;1.48;;;18.80;9.50;;;;;;6189041;23;20123;-87
2022/10/06 09:49:30;;;;;;;5.85;1.33;;;18.50;7.00;;;;;;6184119;23;20040;-87
2022/10/06 09:52:17;;;;;;;4.70;1.33;;;18.50;6.60;;;;;;6164693;23;20040;-87
2022/10/06 09:55:17;;;;;;;3.90;1.15;;;18.90;6.10;;;;;;6185866;23;20104;-86
2022/10/06 09:58:31;;;;;;;3.35;1.05;;;19.00;13.30;;;;;;6191348;23;20029;-89
2022/10/06 10:01:23;;;;;;;4.78;1.30;;;19.40;12.80;;;;;;6147432;23;20029;-88
2022/10/06 10:04:20;;;;;;;5.95;1.30;;;20.40;1.00;;;;;;6184996;23;20021;-87
2022/10/06 10:07:25;;;;;;;7.13;1.63;;;22.30;1.00;;;;;;6184598;23;20017;-88
2022/10/06 10:10:18;;;;;;;7.28;1.10;;;23.80;1.00;;;;;;6165184;23;20029;-88
2022/10/06 10:13:40;;;;;;;5.40;1.15;;;25.40;1.00;;;;;;6185438;23;20433;-89
2022/10/06 10:16:33;;;;;;;2.25;0.88;;;26.40;1.00;;;;;;6186925;23;20032;-89
2022/10/06 10:19:32;;;;;;;3.55;0.90;;;26.10;1.00;;;;;;6189074;23;20056;-88
2022/10/06 10:22:32;;;;;;;5.07;1.23;;;26.60;1.00;;;;;;6164996;23;20021;-89
2022/10/06 10:25:49;;;;;;;3.80;0.82;;;26.30;1.00;;;;;;6186113;23;20025;-89
2022/10/06 10:28:47;;;;;;;4.10;1.30;;;25.20;1.00;;;;;;6186838;23;20032;-88
2022/10/06 10:31:55;;;;;;;5.15;1.30;;;23.70;1.00;;;;;;6187593;23;20040;-89
2022/10/06 10:35:06;;;;;;;5.55;1.20;;;23.10;1.00;;;;;;6188375;23;20104;-86
2022/10/06 10:38:26;;;;;;;3.40;1.05;;;22.50;1.00;;;;;;6170156;23;20025;-89
2022/10/06 10:41:23;;;;;;;5.10;1.30;;;22.00;1.00;;;;;;6190484;23;20433;-90
2022/10/06 10:44:22;;;;;;;5.40;1.80;;;21.20;1.00;;;;;;6191133;23;20039;-89
2022/10/06 10:47:27;;;;;;;5.25;1.45;;;20.50;1.00;;;;;;6189461;23;20056;-90
2022/10/06 10:50:41;;;;;;;6.80;1.67;;;20.20;1.00;;;;;;6190692;23;20092;-91
2022/10/06 10:53:54;;;;;;;5.82;1.77;;;19.90;1.00;;;;;;6189647;23;20396;-91
2022/10/06 10:56:51;;;;;;;3.70;1.43;;;19.80;1.00;;;;;;6195472;23;20341;-90
2022/10/06 11:00:02;;;;;;;5.90;1.63;;;19.90;1.00;;;;;;6221542;23;20021;-88
2022/10/06 11:02:53;;;;;;;5.00;1.58;;;20.00;1.00;;;;;;6202953;23;20029;-89
2022/10/06 11:05:52;;;;;;;4.53;1.05;;;21.60;1.00;;;;;;6196245;23;20039;-90
2022/10/06 11:09:06;;;;;;;5.10;1.20;;;23.50;1.00;;;;;;6200335;23;20024;-90
2022/10/06 11:12:14;;;;;;;3.30;1.30;;;25.40;1.00;;;;;;6199941;23;20035;-89
2022/10/06 11:16:28;;;;;;;4.30;1.05;;;27.60;1.00;;;;;;6200563;23;20092;-90
2022/10/06 11:28:19;;;;;;;5.35;1.42;;;26.90;1.00;;;;;;6167973;23;20065;-90
2022/10/06 11:31:25;;;;;;;6.30;1.10;;;26.80;1.00;;;;;;6108416;23;20032;-91
2022/10/06 11:34:16;;;;;;;4.13;1.20;;;27.20;1.00;;;;;;6161046;23;20025;-89
2022/10/06 11:37:48;;;;;;;6.43;1.50;;;27.90;1.00;;;;;;6041773;23;20511;-88
2022/10/06 11:40:48;;;;;;;4.95;1.33;;;29.80;1.00;;;;;;6022548;23;20042;-89
2022/10/06 11:43:43;;;;;;;6.03;1.17;;;29.60;1.00;;;;;;6050526;23;20073;-91
2022/10/06 11:46:43;;;;;;;6.07;1.30;;;27.20;1.00;;;;;;6031602;23;20035;-89
2022/10/06 11:49:31;;;;;;;6.07;1.30;;;25.90;1.00;;;;;;6060701;23;20286;-89
2022/10/06 11:52:19;;;;;;;5.07;1.25;;;24.50;1.00;;;;;;6110117;23;20058;-91
2022/10/06 11:55:15;;;;;;;4.88;1.25;;;24.00;1.00;;;;;;6105287;23;20027;-89
2022/10/06 11:58:08;;;;;;;4.93;1.05;;;23.50;1.00;;;;;;6105422;23;20030;-88
2022/10/06 12:01:30;;;;;;;5.35;1.30;;;22.70;1.00;;;;;;6089451;23;20030;-89
2022/10/06 12:04:25;;;;;;;7.65;1.60;;;22.10;1.00;;;;;;6109769;23;20026;-90
2022/10/06 12:07:51;;;;;;;4.93;1.30;;;21.80;1.00;;;;;;6127586;23;20278;-89
2022/10/06 12:10:48;;;;;;;5.78;1.38;;;21.60;1.00;;;;;;6195572;23;20039;-90
2022/10/06 12:14:02;;;;;;;5.65;1.25;;;21.80;1.00;;;;;;6184485;23;20089;-89
2022/10/06 12:17:19;;;;;;;5.20;1.63;;;22.00;1.00;;;;;;6187641;23;20040;-90
2022/10/06 12:20:43;;;;;;;9.38;1.60;;;22.00;1.00;;;;;;6188646;23;20039;-89
2022/10/06 12:23:44;;;;;;;3.28;1.30;;;22.50;1.00;;;;;;6185877;23;20052;-88
2022/10/06 12:27:01;;;;;;;14.13;1.63;;;23.70;1.00;;;;;;6186928;23;20036;-89
2022/10/06 12:29:59;;;;;;;4.78;1.40;;;23.50;1.00;;;;;;6193910;23;20040;-90
2022/10/06 12:33:06;;;;;;;6.10;1.02;;;22.80;1.00;;;;;;6190145;23;20048;-90
2022/10/06 12:36:02;;;;;;;8.02;1.45;;;22.80;1.00;;;;;;6188040;23;20055;-91
2022/10/06 12:39:02;;;;;;;6.85;1.38;;;22.10;1.00;;;;;;6190672;23;20451;-90
2022/10/06 12:42:05;;;;;;;5.47;1.20;;;21.20;1.00;;;;;;6171622;23;20021;-91
2022/10/06 12:44:53;;;;;;;6.68;1.35;;;20.70;1.00;;;;;;6167610;23;20021;-90
2022/10/06 12:47:43;;;;;;;3.95;1.15;;;20.30;1.00;;;;;;6172140;23;20036;-90
2022/10/06 12:50:35;;;;;;;7.22;1.33;;;20.10;1.00;;;;;;6172443;23;20419;-90
2022/10/06 12:53:37;;;;;;;6.43;1.70;;;20.10;1.00;;;;;;6170949;23;20053;-91
2022/10/06 12:56:39;;;;;;;9.07;2.25;;;20.30;1.00;;;;;;6170075;23;20075;-91
2022/10/06 12:59:37;;;;;;;6.95;1.42;;;20.60;1.00;;;;;;6173511;23;20025;-90
2022/10/06 13:02:27;;;;;;;5.75;1.05;;;21.10;1.00;;;;;;6174621;23;20437;-92
2022/10/06 13:05:14;;;;;;;9.20;1.33;;;21.30;1.00;;;;;;6178394;23;20049;-91
2022/10/06 13:08:02;;;;;;;9.57;1.77;;;21.40;1.00;;;;;;6195456;23;20018;-90
2022/10/06 13:11:20;;;;;;;9.32;1.15;;;21.20;1.00;;;;;;6195499;23;20029;-92
2022/10/06 13:14:12;;;;;;;6.13;1.70;;;21.20;1.00;;;;;;6171717;23;20101;-90
2022/10/06 13:17:00;;;;;;;;;;;21.10;1.00;;;;;;6191114;23;20052;-90
2022/10/06 13:19:52;;;;;;;10.77;1.92;;;21.10;1.00;;;;;;6192359;23;19927;-92
2022/10/06 13:22:53;;;;;;;7.20;1.45;;;21.10;1.00;;;;;;6176573;23;20045;-88
2022/10/06 13:25:52;;;;;;;5.88;1.42;;;21.50;1.00;;;;;;6197474;23;20028;-89
2022/10/06 13:28:42;;;;;;;8.48;1.55;;;21.90;1.00;;;;;;6200567;23;20031;-90
2022/10/06 13:31:49;;;;;;;10.43;1.63;;;21.70;1.00;;;;;;6179270;23;20459;-91
2022/10/06 13:34:44;;;;;;;9.77;1.58;;;21.60;1.00;;;;;;6183573;23;20025;-92
2022/10/06 13:37:36;;;;;;;;;;;21.10;1.00;;;;;;6176523;23;20099;-89
2022/10/06 13:40:39;;;;;;;8.20;2.00;;;21.20;1.00;;;;;;6202208;23;19916;-91
2022/10/06 13:43:36;;;;;;;8.70;1.90;;;21.10;1.00;;;;;;6199634;23;20129;-91
2022/10/06 13:46:36;;;;;;;7.25;1.77;;;20.80;1.00;;;;;;6201070;23;20306;-91
2022/10/06 13:49:50;;;;;;;7.45;1.95;;;20.60;1.00;;;;;;6176680;23;20021;-91
2022/10/06 13:52:50;;;;;;;5.38;1.50;;;20.50;1.00;;;;;;6179693;23;20044;-91
2022/10/06 13:55:38;;;;;;;9.77;1.83;;;20.60;1.00;;;;;;6178437;23;20025;-91
2022/10/06 13:58:37;;;;;;;;;;;;;;;;;;;;;
2022/10/06 14:01:40;;;;;;;6.82;1.40;;;20.40;1.00;;;;;;6197921;23;20021;-89
2022/10/06 14:04:28;;;;;;;10.88;1.80;;;20.10;1.00;;;;;;6193992;23;20017;-91
2022/10/06 14:07:26;;;;;;;4.43;1.52;;;20.30;1.00;;;;;;6174988;23;20021;-91
2022/10/06 14:10:26;;;;;;;4.97;1.52;;;20.90;1.00;;;;;;6198571;23;20021;-91
2022/10/06 14:13:47;;;;;;;6.57;1.85;;;20.70;1.00;;;;;;6201708;23;20029;-93
2022/10/06 14:16:35;;;;;;;10.07;1.60;;;20.40;1.00;;;;;;6195898;23;20416;-90
2022/10/06 14:19:44;;;;;;;7.57;1.90;;;19.80;1.00;;;;;;6201022;23;20172;-91
2022/10/06 14:22:34;;;;;;;7.75;1.50;;;19.40;1.00;;;;;;6177313;23;20029;-93
2022/10/06 14:25:24;;;;;;;6.28;1.85;;;19.40;1.00;;;;;;6170761;23;20025;-93
2022/10/06 14:28:14;;;;;;;12.23;1.73;;;20.70;1.00;;;;;;6165206;23;20080;-89
2022/10/06 14:31:05;;;;;;;8.45;1.42;;;21.20;1.00;;;;;;6188073;23;20036;-91
2022/10/06 14:33:58;;;;;;;7.80;1.70;;;20.20;1.00;;;;;;6189290;23;20439;-92
2022/10/06 14:36:56;;;;;;;9.38;1.52;;;19.40;1.00;;;;;;6189668;23;20304;-91
2022/10/06 14:39:44;;;;;;;8.57;1.63;;;18.90;1.00;;;;;;6183402;23;20025;-92
2022/10/06 14:42:32;;;;;;;10.73;1.83;;;18.80;1.00;;;;;;6183212;23;20021;-93
2022/10/06 14:45:25;;;;;;;7.65;1.33;;;18.60;1.00;;;;;;6170784;23;20016;-88
2022/10/06 14:48:37;;;;;;;9.27;1.73;;;18.70;1.00;;;;;;6210266;23;20084;-92
2022/10/06 14:51:33;;;;;;;12.18;1.77;;;18.90;1.00;;;;;;6211093;23;20040;-91
2022/10/06 14:54:26;;;;;;;9.10;1.73;;;19.30;1.00;;;;;;6169531;23;20309;-92
2022/10/06 14:57:14;;;;;;;8.25;1.48;;;19.60;1.00;;;;;;6179549;23;20037;-92
2022/10/06 15:04:26;;;;;;;7.88;1.52;;;20.90;1.00;;;;;;6118760;23;20616;-91
2022/10/06 15:10:52;;;;;;;6.03;1.20;;;22.00;1.00;;;;;;6195806;23;20009;-91
2022/10/06 15:13:57;;;;;;;6.43;1.70;;;21.30;1.00;;;;;;6177497;23;20099;-90
2022/10/06 15:16:49;;;;;;;6.32;1.58;;;20.00;1.00;;;;;;6193764;23;20025;-91
2022/10/06 15:19:46;;;;;;;9.65;2.17;;;18.70;1.00;;;;;;6192729;23;20021;-91
2022/10/06 15:22:33;;;;;;;7.15;1.35;;;17.90;1.00;;;;;;6194651;23;20032;-90
2022/10/06 15:29:02;;;;;;;10.45;2.17;;;17.00;1.00;;;;;;6190028;23;20369;-93
2022/10/06 15:32:28;;;;;;;10.98;1.85;;;16.70;21.90;;;;;;6200879;23;20082;-90
2022/10/06 15:35:20;;;;;;;10.63;1.98;;;16.50;37.90;;;;;;6176240;23;20029;-92
2022/10/06 15:38:11;;;;;;;8.57;1.85;;;16.30;58.10;;;;;;6197344;23;20029;-90
2022/10/06 15:41:06;;;;;;;5.68;1.77;;;16.10;67.50;;;;;;6176343;23;20028;-92
2022/10/06 15:43:57;;;;;;;7.88;1.80;;;16.00;93.40;;;;;;6179180;23;20329;-90
2022/10/06 15:46:57;;;;;;;10.55;1.83;;;15.90;99.30;;;;;;6180417;23;20033;-93
2022/10/06 15:54:22;;;;;;;16.98;2.30;;;15.90;99.90;;;;;;6164846;23;20483;-92
2022/10/06 15:57:57;;;;;;;8.80;1.70;;;15.80;99.90;;;;;;6146845;23;20032;-92
2022/10/06 16:35:48;;;;;;;;;;;;;;;;;;;;;
2022/10/06 16:43:52;;;;;;;;;;;;;;;;;;;;;
2022/10/06 16:58:47;;;;;;;11.07;2.88;;;14.40;99.90;;;;;;6081466;23;20018;-92
2022/10/06 17:15:15;;;;;;;9.63;2.15;;;14.20;99.90;;;;;;6029414;23;20008;-95
2022/10/06 17:30:46;;;;;;;10.18;2.30;;;14.10;99.90;;;;;;5965774;24;20036;-92
2022/10/06 17:42:55;;;;;;;;;;;;;;;;;;;;;
2022/10/06 17:46:37;;;;;;;6.18;1.95;;;14.00;99.90;;;;;;5953554;23;20179;-92
2022/10/06 17:49:40;;;;;;;6.07;2.03;;;14.00;99.90;;;;;;6019260;23;20023;-93
2022/10/06 17:52:47;;;;;;;7.85;2.47;;;14.00;99.90;;;;;;6095349;23;20077;-90
2022/10/06 18:05:05;;;;;;;5.88;2.42;;;13.90;99.90;;;;;;6086659;23;20014;-94
2022/10/06 18:33:52;;;;;;;;;;;;;;;;;;;;;
2022/10/06 18:37:56;;;;;;;10.65;3.15;;;13.40;99.90;;;;;;6072965;23;20027;-94
2022/10/06 18:42:01;;;;;;;;;;;;;;;;;;;;;
2022/10/06 19:15:06;;;;;;;;;;;;;;;;;;;;;
2022/10/06 19:51:40;;;;;;;8.60;3.33;;;12.30;1.00;;;;;;5849427;24;20015;-93
2022/10/06 20:42:26;;;;;;;;;;;;;;;;;;;;;
2022/10/06 20:50:29;;;;;;;13.32;3.45;;;12.40;1.00;;;;;;5974077;24;20040;-91
2022/10/06 20:58:05;;;;;;;;;;;;;;;;;;;;;
2022/10/06 21:09:52;;;;;;;;;;;;;;;;;;;;;
2022/10/06 21:13:47;;;;;;;12.45;3.38;;;12.50;1.00;;;;;;6043673;23;20027;-92
2022/10/06 21:22:09;;;;;;;;;;;;;;;;;;;;;
2022/10/06 21:26:36;;;;;;;;;;;;;;;;;;;;;
2022/10/06 21:30:49;;;;;;;;;;;;;;;;;;;;;
2022/10/06 21:39:07;;;;;;;;;;;;;;;;;;;;;
2022/10/06 21:47:06;;;;;;;11.73;2.95;;;12.50;1.00;;;;;;6022396;23;20081;-91
2022/10/06 21:54:37;;;;;;;;;;;;;;;;;;;;;
2022/10/06 21:58:09;;;;;;;10.27;2.75;;;12.70;99.90;;;;;;6100009;23;20026;-92
2022/10/06 22:01:49;;;;;;;8.73;2.78;;;12.70;99.90;;;;;;6098681;23;20022;-91
2022/10/06 22:05:12;;;;;;;12.90;3.17;;;12.70;99.90;;;;;;6077561;23;20030;-91
2022/10/06 22:13:03;;;;;;;11.55;3.10;;;12.70;99.90;;;;;;6030522;23;20011;-90
2022/10/06 22:20:59;;;;;;;7.47;2.70;;;12.70;99.90;;;;;;6061723;23;20111;-91